sensor_id;sensor_type;location;lat;lon;timestamp;temperature;humidity
49124;DHT22;48506;48.202;16.274;2023-04-24T00:00:21;15.70;91.80
49124;DHT22;48506;48.202;16.274;2023-04-24T00:02:47;15.70;91.90
49124;DHT22;48506;48.202;16.274;2023-04-24T00:05:16;15.70;91.90
49124;DHT22;48506;48.202;16.274;2023-04-24T00:07:44;15.60;92.00
49124;DHT22;48506;48.202;16.274;2023-04-24T00:10:11;15.70;92.10
49124;DHT22;48506;48.202;16.274;2023-04-24T00:12:37;15.70;92.00
49124;DHT22;48506;48.202;16.274;2023-04-24T00:15:04;15.70;92.10
49124;DHT22;48506;48.202;16.274;2023-04-24T00:17:31;15.70;92.10
49124;DHT22;48506;48.202;16.274;2023-04-24T00:19:57;15.70;92.20
49124;DHT22;48506;48.202;16.274;2023-04-24T00:22:28;15.60;92.20
49124;DHT22;48506;48.202;16.274;2023-04-24T00:24:55;15.70;92.20
49124;DHT22;48506;48.202;16.274;2023-04-24T00:27:20;15.70;92.20
49124;DHT22;48506;48.202;16.274;2023-04-24T00:29:46;15.70;92.20
49124;DHT22;48506;48.202;16.274;2023-04-24T00:32:13;15.60;92.20
49124;DHT22;48506;48.202;16.274;2023-04-24T00:34:40;15.60;92.40
49124;DHT22;48506;48.202;16.274;2023-04-24T00:37:06;15.50;92.50
49124;DHT22;48506;48.202;16.274;2023-04-24T00:39:33;15.50;92.50
49124;DHT22;48506;48.202;16.274;2023-04-24T00:41:59;15.50;92.60
49124;DHT22;48506;48.202;16.274;2023-04-24T00:44:25;15.50;92.60
49124;DHT22;48506;48.202;16.274;2023-04-24T00:46:52;15.50;92.60
49124;DHT22;48506;48.202;16.274;2023-04-24T00:49:21;15.50;92.60
49124;DHT22;48506;48.202;16.274;2023-04-24T00:51:47;15.50;92.70
49124;DHT22;48506;48.202;16.274;2023-04-24T00:54:15;15.40;92.70
49124;DHT22;48506;48.202;16.274;2023-04-24T00:56:42;15.40;92.80
49124;DHT22;48506;48.202;16.274;2023-04-24T00:59:12;15.40;92.80
49124;DHT22;48506;48.202;16.274;2023-04-24T01:01:39;15.30;92.80
49124;DHT22;48506;48.202;16.274;2023-04-24T01:04:09;15.30;92.90
49124;DHT22;48506;48.202;16.274;2023-04-24T01:06:39;15.20;92.90
49124;DHT22;48506;48.202;16.274;2023-04-24T01:09:06;15.10;93.00
49124;DHT22;48506;48.202;16.274;2023-04-24T01:11:36;15.10;93.20
49124;DHT22;48506;48.202;16.274;2023-04-24T01:14:03;15.00;93.40
49124;DHT22;48506;48.202;16.274;2023-04-24T01:16:29;14.90;93.40
49124;DHT22;48506;48.202;16.274;2023-04-24T01:18:55;14.80;93.40
49124;DHT22;48506;48.202;16.274;2023-04-24T01:21:21;14.80;93.60
49124;DHT22;48506;48.202;16.274;2023-04-24T01:23:49;14.60;93.70
49124;DHT22;48506;48.202;16.274;2023-04-24T01:26:16;14.50;93.90
49124;DHT22;48506;48.202;16.274;2023-04-24T01:28:43;14.40;94.20
49124;DHT22;48506;48.202;16.274;2023-04-24T01:31:09;14.40;94.40
49124;DHT22;48506;48.202;16.274;2023-04-24T01:33:35;14.30;94.50
49124;DHT22;48506;48.202;16.274;2023-04-24T01:36:01;14.30;94.60
49124;DHT22;48506;48.202;16.274;2023-04-24T01:38:27;14.20;94.60
49124;DHT22;48506;48.202;16.274;2023-04-24T01:40:53;14.10;94.90
49124;DHT22;48506;48.202;16.274;2023-04-24T01:43:20;14.00;95.10
49124;DHT22;48506;48.202;16.274;2023-04-24T01:45:45;14.00;95.30
49124;DHT22;48506;48.202;16.274;2023-04-24T01:48:12;13.90;95.30
49124;DHT22;48506;48.202;16.274;2023-04-24T01:50:39;13.90;95.40
49124;DHT22;48506;48.202;16.274;2023-04-24T01:53:05;13.80;95.70
49124;DHT22;48506;48.202;16.274;2023-04-24T01:55:31;13.70;95.90
49124;DHT22;48506;48.202;16.274;2023-04-24T01:57:58;13.50;95.90
49124;DHT22;48506;48.202;16.274;2023-04-24T02:00:25;13.50;96.00
49124;DHT22;48506;48.202;16.274;2023-04-24T02:02:51;13.50;96.10
49124;DHT22;48506;48.202;16.274;2023-04-24T02:05:17;13.50;96.10
49124;DHT22;48506;48.202;16.274;2023-04-24T02:07:43;13.50;96.00
49124;DHT22;48506;48.202;16.274;2023-04-24T02:10:10;13.60;96.00
49124;DHT22;48506;48.202;16.274;2023-04-24T02:12:36;13.60;96.00
49124;DHT22;48506;48.202;16.274;2023-04-24T02:15:02;13.60;96.00
49124;DHT22;48506;48.202;16.274;2023-04-24T02:17:29;13.50;96.00
49124;DHT22;48506;48.202;16.274;2023-04-24T02:19:54;13.40;96.10
49124;DHT22;48506;48.202;16.274;2023-04-24T02:22:20;13.40;96.50
49124;DHT22;48506;48.202;16.274;2023-04-24T02:24:46;13.40;96.50
49124;DHT22;48506;48.202;16.274;2023-04-24T02:27:12;13.30;96.60
49124;DHT22;48506;48.202;16.274;2023-04-24T02:29:38;13.30;96.50
49124;DHT22;48506;48.202;16.274;2023-04-24T02:32:04;13.30;96.50
49124;DHT22;48506;48.202;16.274;2023-04-24T02:34:30;13.30;96.60
49124;DHT22;48506;48.202;16.274;2023-04-24T02:36:56;13.30;96.50
49124;DHT22;48506;48.202;16.274;2023-04-24T02:39:22;13.30;96.50
49124;DHT22;48506;48.202;16.274;2023-04-24T02:41:48;13.40;96.50
49124;DHT22;48506;48.202;16.274;2023-04-24T02:44:13;13.40;96.40
49124;DHT22;48506;48.202;16.274;2023-04-24T02:46:39;13.40;96.30
49124;DHT22;48506;48.202;16.274;2023-04-24T02:49:08;13.40;96.30
49124;DHT22;48506;48.202;16.274;2023-04-24T02:51:33;13.40;96.30
49124;DHT22;48506;48.202;16.274;2023-04-24T02:53:59;13.40;96.30
49124;DHT22;48506;48.202;16.274;2023-04-24T02:56:25;13.30;96.30
49124;DHT22;48506;48.202;16.274;2023-04-24T02:58:51;13.30;96.30
49124;DHT22;48506;48.202;16.274;2023-04-24T03:01:17;13.30;96.40
49124;DHT22;48506;48.202;16.274;2023-04-24T03:03:43;13.30;96.50
49124;DHT22;48506;48.202;16.274;2023-04-24T03:06:09;13.30;96.40
49124;DHT22;48506;48.202;16.274;2023-04-24T03:08:36;13.20;96.40
49124;DHT22;48506;48.202;16.274;2023-04-24T03:11:02;13.20;96.50
49124;DHT22;48506;48.202;16.274;2023-04-24T03:13:28;13.20;96.60
49124;DHT22;48506;48.202;16.274;2023-04-24T03:15:54;13.20;96.70
49124;DHT22;48506;48.202;16.274;2023-04-24T03:18:20;13.20;96.80
49124;DHT22;48506;48.202;16.274;2023-04-24T03:20:46;13.10;96.90
49124;DHT22;48506;48.202;16.274;2023-04-24T03:23:13;13.10;97.10
49124;DHT22;48506;48.202;16.274;2023-04-24T03:25:39;13.10;97.10
49124;DHT22;48506;48.202;16.274;2023-04-24T03:28:06;13.10;97.30
49124;DHT22;48506;48.202;16.274;2023-04-24T03:30:32;13.10;97.20
49124;DHT22;48506;48.202;16.274;2023-04-24T03:32:58;13.20;97.30
49124;DHT22;48506;48.202;16.274;2023-04-24T03:35:23;13.20;97.30
49124;DHT22;48506;48.202;16.274;2023-04-24T03:37:49;13.20;97.50
49124;DHT22;48506;48.202;16.274;2023-04-24T03:40:15;13.20;97.50
49124;DHT22;48506;48.202;16.274;2023-04-24T03:42:41;13.30;97.40
49124;DHT22;48506;48.202;16.274;2023-04-24T03:45:07;13.40;97.40
49124;DHT22;48506;48.202;16.274;2023-04-24T03:47:34;13.40;97.60
49124;DHT22;48506;48.202;16.274;2023-04-24T03:50:01;13.40;97.60
49124;DHT22;48506;48.202;16.274;2023-04-24T03:52:27;13.50;97.50
49124;DHT22;48506;48.202;16.274;2023-04-24T03:54:53;13.60;97.60
49124;DHT22;48506;48.202;16.274;2023-04-24T03:57:19;13.60;97.50
49124;DHT22;48506;48.202;16.274;2023-04-24T03:59:45;13.60;97.50
49124;DHT22;48506;48.202;16.274;2023-04-24T04:02:11;13.70;97.60
49124;DHT22;48506;48.202;16.274;2023-04-24T04:04:36;13.70;97.50
49124;DHT22;48506;48.202;16.274;2023-04-24T04:07:03;13.70;97.40
49124;DHT22;48506;48.202;16.274;2023-04-24T04:09:29;13.70;97.40
49124;DHT22;48506;48.202;16.274;2023-04-24T04:11:55;13.80;97.40
49124;DHT22;48506;48.202;16.274;2023-04-24T04:14:24;13.80;97.50
49124;DHT22;48506;48.202;16.274;2023-04-24T04:16:50;13.80;97.50
49124;DHT22;48506;48.202;16.274;2023-04-24T04:19:17;13.80;97.40
49124;DHT22;48506;48.202;16.274;2023-04-24T04:21:43;13.80;97.40
49124;DHT22;48506;48.202;16.274;2023-04-24T04:24:11;13.90;97.40
49124;DHT22;48506;48.202;16.274;2023-04-24T04:26:38;13.90;97.30
49124;DHT22;48506;48.202;16.274;2023-04-24T04:29:04;14.00;97.40
49124;DHT22;48506;48.202;16.274;2023-04-24T04:31:30;14.00;97.40
49124;DHT22;48506;48.202;16.274;2023-04-24T04:33:56;14.00;97.30
49124;DHT22;48506;48.202;16.274;2023-04-24T04:36:22;14.00;97.30
49124;DHT22;48506;48.202;16.274;2023-04-24T04:38:50;14.00;97.20
49124;DHT22;48506;48.202;16.274;2023-04-24T04:41:16;14.10;97.10
49124;DHT22;48506;48.202;16.274;2023-04-24T04:43:44;14.10;97.00
49124;DHT22;48506;48.202;16.274;2023-04-24T04:46:10;14.10;97.00
49124;DHT22;48506;48.202;16.274;2023-04-24T04:48:38;14.10;97.00
49124;DHT22;48506;48.202;16.274;2023-04-24T04:51:04;14.10;96.90
49124;DHT22;48506;48.202;16.274;2023-04-24T04:53:30;14.10;97.00
49124;DHT22;48506;48.202;16.274;2023-04-24T04:55:57;14.20;96.90
49124;DHT22;48506;48.202;16.274;2023-04-24T04:58:23;14.20;96.90
49124;DHT22;48506;48.202;16.274;2023-04-24T05:00:50;14.20;97.10
49124;DHT22;48506;48.202;16.274;2023-04-24T05:03:16;14.20;97.00
49124;DHT22;48506;48.202;16.274;2023-04-24T05:05:42;14.30;96.90
49124;DHT22;48506;48.202;16.274;2023-04-24T05:08:09;14.30;96.80
49124;DHT22;48506;48.202;16.274;2023-04-24T05:10:35;14.40;96.70
49124;DHT22;48506;48.202;16.274;2023-04-24T05:13:03;14.40;96.70
49124;DHT22;48506;48.202;16.274;2023-04-24T05:15:30;14.40;96.80
49124;DHT22;48506;48.202;16.274;2023-04-24T05:17:56;14.40;96.70
49124;DHT22;48506;48.202;16.274;2023-04-24T05:20:23;14.40;96.70
49124;DHT22;48506;48.202;16.274;2023-04-24T05:22:48;14.40;96.60
49124;DHT22;48506;48.202;16.274;2023-04-24T05:25:14;14.40;96.80
49124;DHT22;48506;48.202;16.274;2023-04-24T05:27:41;14.40;96.70
49124;DHT22;48506;48.202;16.274;2023-04-24T05:30:07;14.40;96.70
49124;DHT22;48506;48.202;16.274;2023-04-24T05:32:33;14.40;96.60
49124;DHT22;48506;48.202;16.274;2023-04-24T05:34:59;14.50;96.60
49124;DHT22;48506;48.202;16.274;2023-04-24T05:37:26;14.50;96.60
49124;DHT22;48506;48.202;16.274;2023-04-24T05:39:52;14.60;96.40
49124;DHT22;48506;48.202;16.274;2023-04-24T05:42:18;14.60;96.30
49124;DHT22;48506;48.202;16.274;2023-04-24T05:44:46;14.70;96.30
49124;DHT22;48506;48.202;16.274;2023-04-24T05:47:11;14.70;96.20
49124;DHT22;48506;48.202;16.274;2023-04-24T05:49:38;14.80;96.20
49124;DHT22;48506;48.202;16.274;2023-04-24T05:52:04;14.90;95.90
49124;DHT22;48506;48.202;16.274;2023-04-24T05:54:32;14.90;95.90
49124;DHT22;48506;48.202;16.274;2023-04-24T05:56:59;15.00;95.70
49124;DHT22;48506;48.202;16.274;2023-04-24T05:59:27;15.10;95.50
49124;DHT22;48506;48.202;16.274;2023-04-24T06:01:53;15.30;95.40
49124;DHT22;48506;48.202;16.274;2023-04-24T06:04:19;15.30;95.00
49124;DHT22;48506;48.202;16.274;2023-04-24T06:06:45;15.40;94.70
49124;DHT22;48506;48.202;16.274;2023-04-24T06:09:11;15.40;94.60
49124;DHT22;48506;48.202;16.274;2023-04-24T06:11:39;15.50;94.90
49124;DHT22;48506;48.202;16.274;2023-04-24T06:14:05;15.50;94.70
49124;DHT22;48506;48.202;16.274;2023-04-24T06:16:31;15.60;94.60
49124;DHT22;48506;48.202;16.274;2023-04-24T06:18:57;15.70;94.40
49124;DHT22;48506;48.202;16.274;2023-04-24T06:21:24;15.80;94.40
49124;DHT22;48506;48.202;16.274;2023-04-24T06:23:50;15.90;94.10
49124;DHT22;48506;48.202;16.274;2023-04-24T06:26:16;15.90;93.70
49124;DHT22;48506;48.202;16.274;2023-04-24T06:28:42;15.90;93.90
49124;DHT22;48506;48.202;16.274;2023-04-24T06:31:08;16.00;93.80
49124;DHT22;48506;48.202;16.274;2023-04-24T06:33:34;16.00;93.70
49124;DHT22;48506;48.202;16.274;2023-04-24T06:36:00;16.00;93.70
49124;DHT22;48506;48.202;16.274;2023-04-24T06:38:26;16.00;93.60
49124;DHT22;48506;48.202;16.274;2023-04-24T06:40:54;16.10;93.80
49124;DHT22;48506;48.202;16.274;2023-04-24T06:43:19;16.20;93.50
49124;DHT22;48506;48.202;16.274;2023-04-24T06:45:46;16.20;93.50
49124;DHT22;48506;48.202;16.274;2023-04-24T06:48:12;16.30;93.30
49124;DHT22;48506;48.202;16.274;2023-04-24T06:50:38;16.40;93.10
49124;DHT22;48506;48.202;16.274;2023-04-24T06:53:04;16.50;92.80
49124;DHT22;48506;48.202;16.274;2023-04-24T06:55:30;16.50;92.80
49124;DHT22;48506;48.202;16.274;2023-04-24T06:57:56;16.50;92.70
49124;DHT22;48506;48.202;16.274;2023-04-24T07:00:22;16.60;92.80
49124;DHT22;48506;48.202;16.274;2023-04-24T07:02:50;16.70;92.40
49124;DHT22;48506;48.202;16.274;2023-04-24T07:05:16;16.70;92.40
49124;DHT22;48506;48.202;16.274;2023-04-24T07:07:47;16.60;92.30
49124;DHT22;48506;48.202;16.274;2023-04-24T07:10:13;16.60;92.40
49124;DHT22;48506;48.202;16.274;2023-04-24T07:12:40;16.70;92.40
49124;DHT22;48506;48.202;16.274;2023-04-24T07:15:07;16.70;92.50
49124;DHT22;48506;48.202;16.274;2023-04-24T07:17:34;16.80;92.00
49124;DHT22;48506;48.202;16.274;2023-04-24T07:20:01;16.90;92.20
49124;DHT22;48506;48.202;16.274;2023-04-24T07:22:28;16.80;92.10
49124;DHT22;48506;48.202;16.274;2023-04-24T07:24:54;16.70;92.40
49124;DHT22;48506;48.202;16.274;2023-04-24T07:27:20;16.60;92.40
49124;DHT22;48506;48.202;16.274;2023-04-24T07:29:46;16.50;92.70
49124;DHT22;48506;48.202;16.274;2023-04-24T07:32:13;16.40;92.70
49124;DHT22;48506;48.202;16.274;2023-04-24T07:34:39;16.40;93.00
49124;DHT22;48506;48.202;16.274;2023-04-24T07:37:04;16.40;92.60
49124;DHT22;48506;48.202;16.274;2023-04-24T07:39:30;16.30;92.90
49124;DHT22;48506;48.202;16.274;2023-04-24T07:41:58;16.30;93.00
49124;DHT22;48506;48.202;16.274;2023-04-24T07:44:24;16.30;93.10
49124;DHT22;48506;48.202;16.274;2023-04-24T07:46:50;16.30;93.10
49124;DHT22;48506;48.202;16.274;2023-04-24T07:49:17;16.20;93.40
49124;DHT22;48506;48.202;16.274;2023-04-24T07:51:43;16.10;93.40
49124;DHT22;48506;48.202;16.274;2023-04-24T07:54:09;16.10;93.60
49124;DHT22;48506;48.202;16.274;2023-04-24T07:56:35;16.00;93.90
49124;DHT22;48506;48.202;16.274;2023-04-24T07:59:05;15.80;94.20
49124;DHT22;48506;48.202;16.274;2023-04-24T08:01:31;15.80;94.60
49124;DHT22;48506;48.202;16.274;2023-04-24T08:03:57;15.80;94.20
49124;DHT22;48506;48.202;16.274;2023-04-24T08:06:24;15.70;94.30
49124;DHT22;48506;48.202;16.274;2023-04-24T08:08:53;15.80;94.20
49124;DHT22;48506;48.202;16.274;2023-04-24T08:11:20;15.80;94.10
49124;DHT22;48506;48.202;16.274;2023-04-24T08:13:46;15.80;94.10
49124;DHT22;48506;48.202;16.274;2023-04-24T08:16:12;15.80;94.00
49124;DHT22;48506;48.202;16.274;2023-04-24T08:18:38;16.00;93.90
49124;DHT22;48506;48.202;16.274;2023-04-24T08:21:04;15.90;93.70
49124;DHT22;48506;48.202;16.274;2023-04-24T08:23:30;15.90;93.70
49124;DHT22;48506;48.202;16.274;2023-04-24T08:25:57;15.90;93.70
49124;DHT22;48506;48.202;16.274;2023-04-24T08:28:23;15.90;93.70
49124;DHT22;48506;48.202;16.274;2023-04-24T08:30:49;15.80;93.80
49124;DHT22;48506;48.202;16.274;2023-04-24T08:33:23;15.70;93.80
49124;DHT22;48506;48.202;16.274;2023-04-24T08:35:52;15.50;94.40
49124;DHT22;48506;48.202;16.274;2023-04-24T08:38:19;15.20;95.00
49124;DHT22;48506;48.202;16.274;2023-04-24T08:40:47;15.00;95.80
49124;DHT22;48506;48.202;16.274;2023-04-24T08:43:16;14.80;96.40
49124;DHT22;48506;48.202;16.274;2023-04-24T08:45:42;14.60;96.90
49124;DHT22;48506;48.202;16.274;2023-04-24T08:48:09;14.40;97.20
49124;DHT22;48506;48.202;16.274;2023-04-24T08:50:36;14.30;97.10
49124;DHT22;48506;48.202;16.274;2023-04-24T08:53:02;14.20;97.70
49124;DHT22;48506;48.202;16.274;2023-04-24T08:55:30;14.10;98.10
49124;DHT22;48506;48.202;16.274;2023-04-24T08:57:59;14.10;97.70
49124;DHT22;48506;48.202;16.274;2023-04-24T09:00:27;14.00;98.20
49124;DHT22;48506;48.202;16.274;2023-04-24T09:02:55;14.00;98.10
49124;DHT22;48506;48.202;16.274;2023-04-24T09:05:23;14.00;98.20
49124;DHT22;48506;48.202;16.274;2023-04-24T09:07:56;14.00;98.00
49124;DHT22;48506;48.202;16.274;2023-04-24T09:10:26;13.90;97.90
49124;DHT22;48506;48.202;16.274;2023-04-24T09:12:54;13.90;98.10
49124;DHT22;48506;48.202;16.274;2023-04-24T09:15:23;13.90;98.30
49124;DHT22;48506;48.202;16.274;2023-04-24T09:17:50;13.90;98.00
49124;DHT22;48506;48.202;16.274;2023-04-24T09:20:17;13.90;97.70
49124;DHT22;48506;48.202;16.274;2023-04-24T09:22:45;13.90;97.70
49124;DHT22;48506;48.202;16.274;2023-04-24T09:25:11;13.80;97.20
49124;DHT22;48506;48.202;16.274;2023-04-24T09:27:42;13.80;97.60
49124;DHT22;48506;48.202;16.274;2023-04-24T09:30:11;13.80;97.40
49124;DHT22;48506;48.202;16.274;2023-04-24T09:32:37;13.80;97.30
49124;DHT22;48506;48.202;16.274;2023-04-24T09:35:14;13.80;97.40
49124;DHT22;48506;48.202;16.274;2023-04-24T09:37:43;13.80;97.10
49124;DHT22;48506;48.202;16.274;2023-04-24T09:40:21;13.80;97.20
49124;DHT22;48506;48.202;16.274;2023-04-24T09:42:55;13.80;97.40
49124;DHT22;48506;48.202;16.274;2023-04-24T09:45:44;13.90;96.90
49124;DHT22;48506;48.202;16.274;2023-04-24T09:48:10;13.80;96.80
49124;DHT22;48506;48.202;16.274;2023-04-24T09:50:36;13.90;97.00
49124;DHT22;48506;48.202;16.274;2023-04-24T09:53:05;13.90;96.70
49124;DHT22;48506;48.202;16.274;2023-04-24T09:55:41;13.90;96.60
49124;DHT22;48506;48.202;16.274;2023-04-24T09:58:10;14.00;96.60
49124;DHT22;48506;48.202;16.274;2023-04-24T10:00:36;13.90;96.50
49124;DHT22;48506;48.202;16.274;2023-04-24T10:03:04;13.90;97.00
49124;DHT22;48506;48.202;16.274;2023-04-24T10:05:37;14.00;96.70
49124;DHT22;48506;48.202;16.274;2023-04-24T10:08:09;14.10;96.80
49124;DHT22;48506;48.202;16.274;2023-04-24T10:10:40;14.20;96.40
49124;DHT22;48506;48.202;16.274;2023-04-24T10:13:08;14.10;96.10
49124;DHT22;48506;48.202;16.274;2023-04-24T10:15:37;14.20;96.70
49124;DHT22;48506;48.202;16.274;2023-04-24T10:18:07;14.20;96.10
49124;DHT22;48506;48.202;16.274;2023-04-24T10:20:37;14.20;96.20
49124;DHT22;48506;48.202;16.274;2023-04-24T10:23:04;14.20;96.40
49124;DHT22;48506;48.202;16.274;2023-04-24T10:25:33;14.20;96.20
49124;DHT22;48506;48.202;16.274;2023-04-24T10:28:00;14.20;96.40
49124;DHT22;48506;48.202;16.274;2023-04-24T10:30:32;14.10;96.60
49124;DHT22;48506;48.202;16.274;2023-04-24T10:33:04;14.20;96.70
49124;DHT22;48506;48.202;16.274;2023-04-24T10:35:41;14.10;97.00
49124;DHT22;48506;48.202;16.274;2023-04-24T10:38:21;14.10;97.30
49124;DHT22;48506;48.202;16.274;2023-04-24T10:40:50;14.00;97.90
49124;DHT22;48506;48.202;16.274;2023-04-24T10:43:17;13.90;97.90
49124;DHT22;48506;48.202;16.274;2023-04-24T10:46:03;13.90;98.00
49124;DHT22;48506;48.202;16.274;2023-04-24T10:48:30;14.00;97.90
49124;DHT22;48506;48.202;16.274;2023-04-24T10:50:56;14.00;97.80
49124;DHT22;48506;48.202;16.274;2023-04-24T10:53:29;14.00;97.90
49124;DHT22;48506;48.202;16.274;2023-04-24T10:56:03;14.00;98.10
49124;DHT22;48506;48.202;16.274;2023-04-24T10:58:43;14.00;98.40
49124;DHT22;48506;48.202;16.274;2023-04-24T11:01:31;14.10;98.40
49124;DHT22;48506;48.202;16.274;2023-04-24T11:03:59;14.10;98.30
49124;DHT22;48506;48.202;16.274;2023-04-24T11:06:37;14.10;98.10
49124;DHT22;48506;48.202;16.274;2023-04-24T11:09:10;14.10;98.60
49124;DHT22;48506;48.202;16.274;2023-04-24T11:11:46;14.10;98.50
49124;DHT22;48506;48.202;16.274;2023-04-24T11:14:16;14.10;98.40
49124;DHT22;48506;48.202;16.274;2023-04-24T11:16:45;14.10;98.60
49124;DHT22;48506;48.202;16.274;2023-04-24T11:27:16;14.10;99.20
49124;DHT22;48506;48.202;16.274;2023-04-24T11:35:03;14.10;99.80
49124;DHT22;48506;48.202;16.274;2023-04-24T11:37:40;14.10;99.80
49124;DHT22;48506;48.202;16.274;2023-04-24T11:40:10;14.10;99.90
49124;DHT22;48506;48.202;16.274;2023-04-24T11:42:41;14.10;99.90
49124;DHT22;48506;48.202;16.274;2023-04-24T11:45:09;14.10;99.90
49124;DHT22;48506;48.202;16.274;2023-04-24T11:47:36;14.10;99.90
49124;DHT22;48506;48.202;16.274;2023-04-24T11:50:05;14.10;99.90
49124;DHT22;48506;48.202;16.274;2023-04-24T11:52:36;14.20;99.90
49124;DHT22;48506;48.202;16.274;2023-04-24T11:55:02;14.20;99.90
49124;DHT22;48506;48.202;16.274;2023-04-24T11:57:30;14.40;99.90
49124;DHT22;48506;48.202;16.274;2023-04-24T12:00:01;14.50;99.90
49124;DHT22;48506;48.202;16.274;2023-04-24T12:02:28;14.70;99.90
49124;DHT22;48506;48.202;16.274;2023-04-24T12:04:55;14.80;99.90
49124;DHT22;48506;48.202;16.274;2023-04-24T12:07:22;14.90;99.90
49124;DHT22;48506;48.202;16.274;2023-04-24T12:09:57;15.10;99.90
49124;DHT22;48506;48.202;16.274;2023-04-24T12:12:27;15.20;99.90
49124;DHT22;48506;48.202;16.274;2023-04-24T12:14:55;15.30;99.90
49124;DHT22;48506;48.202;16.274;2023-04-24T12:17:32;15.50;99.90
49124;DHT22;48506;48.202;16.274;2023-04-24T12:20:03;15.70;99.90
49124;DHT22;48506;48.202;16.274;2023-04-24T12:25:19;16.10;99.80
49124;DHT22;48506;48.202;16.274;2023-04-24T12:27:46;16.10;99.60
49124;DHT22;48506;48.202;16.274;2023-04-24T12:30:15;16.00;99.70
49124;DHT22;48506;48.202;16.274;2023-04-24T12:32:47;15.90;99.30
49124;DHT22;48506;48.202;16.274;2023-04-24T12:35:19;15.80;99.00
49124;DHT22;48506;48.202;16.274;2023-04-24T12:37:46;15.80;99.60
49124;DHT22;48506;48.202;16.274;2023-04-24T12:40:13;15.80;98.60
49124;DHT22;48506;48.202;16.274;2023-04-24T12:42:50;15.70;99.00
49124;DHT22;48506;48.202;16.274;2023-04-24T12:45:17;15.60;99.40
49124;DHT22;48506;48.202;16.274;2023-04-24T12:47:44;15.70;99.30
49124;DHT22;48506;48.202;16.274;2023-04-24T12:50:13;15.70;99.10
49124;DHT22;48506;48.202;16.274;2023-04-24T12:52:39;15.70;99.40
49124;DHT22;48506;48.202;16.274;2023-04-24T12:55:07;15.70;99.20
49124;DHT22;48506;48.202;16.274;2023-04-24T12:57:38;15.70;99.10
49124;DHT22;48506;48.202;16.274;2023-04-24T13:00:06;15.70;99.00
49124;DHT22;48506;48.202;16.274;2023-04-24T13:02:33;15.60;98.80
49124;DHT22;48506;48.202;16.274;2023-04-24T13:05:01;15.60;99.10
49124;DHT22;48506;48.202;16.274;2023-04-24T13:07:28;15.70;99.00
49124;DHT22;48506;48.202;16.274;2023-04-24T13:09:56;15.70;99.10
49124;DHT22;48506;48.202;16.274;2023-04-24T13:12:23;15.70;98.30
49124;DHT22;48506;48.202;16.274;2023-04-24T13:14:52;15.80;98.70
49124;DHT22;48506;48.202;16.274;2023-04-24T13:17:18;15.90;98.20
49124;DHT22;48506;48.202;16.274;2023-04-24T13:19:44;16.00;98.70
49124;DHT22;48506;48.202;16.274;2023-04-24T13:22:12;16.10;98.60
49124;DHT22;48506;48.202;16.274;2023-04-24T13:24:39;16.10;98.00
49124;DHT22;48506;48.202;16.274;2023-04-24T13:27:07;16.20;97.90
49124;DHT22;48506;48.202;16.274;2023-04-24T13:29:35;16.20;97.70
49124;DHT22;48506;48.202;16.274;2023-04-24T13:32:01;16.20;97.30
49124;DHT22;48506;48.202;16.274;2023-04-24T13:34:27;16.20;97.30
49124;DHT22;48506;48.202;16.274;2023-04-24T13:36:56;16.30;97.70
49124;DHT22;48506;48.202;16.274;2023-04-24T13:39:23;16.20;97.50
49124;DHT22;48506;48.202;16.274;2023-04-24T13:41:50;16.20;97.50
49124;DHT22;48506;48.202;16.274;2023-04-24T13:44:18;16.10;97.30
49124;DHT22;48506;48.202;16.274;2023-04-24T13:46:47;16.00;97.30
49124;DHT22;48506;48.202;16.274;2023-04-24T13:49:14;15.80;96.60
49124;DHT22;48506;48.202;16.274;2023-04-24T13:51:41;15.60;97.00
49124;DHT22;48506;48.202;16.274;2023-04-24T13:54:07;15.50;97.50
49124;DHT22;48506;48.202;16.274;2023-04-24T13:56:34;15.40;97.60
49124;DHT22;48506;48.202;16.274;2023-04-24T13:59:00;15.30;98.00
49124;DHT22;48506;48.202;16.274;2023-04-24T14:01:26;15.30;98.10
49124;DHT22;48506;48.202;16.274;2023-04-24T14:03:53;15.10;98.00
49124;DHT22;48506;48.202;16.274;2023-04-24T14:06:20;15.00;98.50
49124;DHT22;48506;48.202;16.274;2023-04-24T14:08:48;15.00;99.00
49124;DHT22;48506;48.202;16.274;2023-04-24T14:11:14;15.00;98.80
49124;DHT22;48506;48.202;16.274;2023-04-24T14:13:42;14.90;99.40
49124;DHT22;48506;48.202;16.274;2023-04-24T14:16:08;15.00;99.30
49124;DHT22;48506;48.202;16.274;2023-04-24T14:18:36;15.00;99.50
49124;DHT22;48506;48.202;16.274;2023-04-24T14:21:05;15.10;99.90
49124;DHT22;48506;48.202;16.274;2023-04-24T14:23:31;15.10;99.90
49124;DHT22;48506;48.202;16.274;2023-04-24T14:25:58;15.10;99.90
49124;DHT22;48506;48.202;16.274;2023-04-24T14:28:24;15.10;99.90
49124;DHT22;48506;48.202;16.274;2023-04-24T14:30:52;15.00;99.80
49124;DHT22;48506;48.202;16.274;2023-04-24T14:33:18;15.00;99.90
49124;DHT22;48506;48.202;16.274;2023-04-24T14:35:46;14.80;99.90
49124;DHT22;48506;48.202;16.274;2023-04-24T14:38:12;14.70;99.90
49124;DHT22;48506;48.202;16.274;2023-04-24T14:40:39;14.60;99.90
49124;DHT22;48506;48.202;16.274;2023-04-24T14:43:06;14.60;99.90
49124;DHT22;48506;48.202;16.274;2023-04-24T14:45:33;14.60;99.90
49124;DHT22;48506;48.202;16.274;2023-04-24T14:47:59;14.60;99.90
49124;DHT22;48506;48.202;16.274;2023-04-24T14:50:25;14.60;99.90
49124;DHT22;48506;48.202;16.274;2023-04-24T14:52:55;14.60;99.90
49124;DHT22;48506;48.202;16.274;2023-04-24T14:55:25;14.60;99.90
49124;DHT22;48506;48.202;16.274;2023-04-24T14:57:53;14.60;99.90
49124;DHT22;48506;48.202;16.274;2023-04-24T15:00:20;14.60;99.90
49124;DHT22;48506;48.202;16.274;2023-04-24T15:02:49;14.60;99.90
49124;DHT22;48506;48.202;16.274;2023-04-24T15:05:15;14.50;99.90
49124;DHT22;48506;48.202;16.274;2023-04-24T15:07:40;14.50;99.90
49124;DHT22;48506;48.202;16.274;2023-04-24T15:10:11;14.50;99.90
49124;DHT22;48506;48.202;16.274;2023-04-24T15:12:37;14.50;99.90
49124;DHT22;48506;48.202;16.274;2023-04-24T15:15:04;14.50;99.90
49124;DHT22;48506;48.202;16.274;2023-04-24T15:17:30;14.50;99.90
49124;DHT22;48506;48.202;16.274;2023-04-24T15:19:57;14.50;99.90
49124;DHT22;48506;48.202;16.274;2023-04-24T15:22:24;14.40;99.90
49124;DHT22;48506;48.202;16.274;2023-04-24T15:24:52;14.40;99.90
49124;DHT22;48506;48.202;16.274;2023-04-24T15:27:18;14.30;99.90
49124;DHT22;48506;48.202;16.274;2023-04-24T15:29:44;14.30;99.90
49124;DHT22;48506;48.202;16.274;2023-04-24T15:32:11;14.10;99.90